createdAt,value
2023-01-19T00:01:16.100Z,5.88
2023-01-19T00:06:18.297Z,5.99
2023-01-19T00:11:19.905Z,6.04
2023-01-19T00:16:21.924Z,6.09
2023-01-19T00:21:23.477Z,5.95
2023-01-19T00:26:25.041Z,6.01
2023-01-19T00:31:26.588Z,5.93
2023-01-19T00:36:28.318Z,6.09
2023-01-19T00:41:29.775Z,6.01
2023-01-19T00:46:31.226Z,5.68
2023-01-19T00:51:32.695Z,5.70
2023-01-19T00:56:34.251Z,5.77
2023-01-19T01:01:45.002Z,5.69
2023-01-19T01:06:51.743Z,5.31
2023-01-19T01:11:53.341Z,5.16
2023-01-19T01:16:54.843Z,5.10
2023-01-19T01:21:56.403Z,5.19
2023-01-19T01:26:57.958Z,5.14
2023-01-19T01:31:59.502Z,5.02
2023-01-19T01:37:01.021Z,4.98
2023-01-19T01:42:03.706Z,4.91
2023-01-19T01:47:05.352Z,4.72
2023-01-19T01:52:07.310Z,4.58
2023-01-19T01:57:10.744Z,4.50
2023-01-19T02:02:23.215Z,4.49
2023-01-19T02:07:38.276Z,4.46
2023-01-19T02:12:39.857Z,4.29
2023-01-19T02:17:41.955Z,4.20
2023-01-19T02:22:49.563Z,4.19
2023-01-19T02:27:52.701Z,4.13
2023-01-19T02:32:54.281Z,4.10
2023-01-19T02:37:56.757Z,4.02
2023-01-19T02:42:59.854Z,3.92
2023-01-19T02:48:01.710Z,3.87
2023-01-19T02:53:21.259Z,3.85
2023-01-19T02:58:44.976Z,3.83
2023-01-19T03:03:53.757Z,3.57
2023-01-19T03:09:02.849Z,3.60
2023-01-19T03:14:14.100Z,3.58
2023-01-19T03:19:22.297Z,3.67
2023-01-19T03:24:26.960Z,3.58
2023-01-19T03:29:32.386Z,3.84
2023-01-19T03:34:35.013Z,3.76
2023-01-19T03:39:37.068Z,3.61
2023-01-19T03:44:41.095Z,3.44
2023-01-19T03:49:45.602Z,3.51
2023-01-19T03:54:47.136Z,3.56
2023-01-19T03:59:48.664Z,3.51
2023-01-19T04:04:50.530Z,3.40
2023-01-19T04:09:51.962Z,3.17
2023-01-19T04:14:53.416Z,2.94
2023-01-19T04:19:54.878Z,2.78
2023-01-19T04:24:56.331Z,2.72
2023-01-19T04:29:57.787Z,2.72
2023-01-19T04:34:59.643Z,2.73
2023-01-19T04:40:01.157Z,2.82
2023-01-19T04:45:02.692Z,2.89
2023-01-19T04:50:04.838Z,3.01
2023-01-19T04:55:07.059Z,3.19
2023-01-19T05:00:09.210Z,3.30
2023-01-19T05:05:11.533Z,3.40
2023-01-19T05:10:13.051Z,3.40
2023-01-19T05:15:14.635Z,3.42
2023-01-19T05:20:16.555Z,3.44
2023-01-19T05:25:18.595Z,3.35
2023-01-19T05:30:20.192Z,3.35
2023-01-19T05:35:31.354Z,3.12
2023-01-19T05:40:36.956Z,3.01
2023-01-19T05:45:38.535Z,3.05
2023-01-19T05:50:40.066Z,3.02
2023-01-19T05:55:41.640Z,2.89
2023-01-19T06:00:43.208Z,2.93
2023-01-19T06:05:44.688Z,3.16
2023-01-19T06:10:46.222Z,3.10
2023-01-19T06:15:47.741Z,2.94
2023-01-19T06:20:49.249Z,3.01
2023-01-19T06:25:50.752Z,3.11
2023-01-19T06:30:54.159Z,3.10
2023-01-19T06:35:56.226Z,3.21
2023-01-19T06:40:58.668Z,3.26
2023-01-19T06:46:00.706Z,3.43
2023-01-19T06:51:02.314Z,3.52
2023-01-19T06:56:04.524Z,3.46
2023-01-19T07:01:07.631Z,3.75
2023-01-19T07:06:09.414Z,3.72
2023-01-19T07:11:25.050Z,3.58
2023-01-19T07:16:32.003Z,3.54
2023-01-19T07:21:33.446Z,3.40
2023-01-19T07:26:34.974Z,3.35
2023-01-19T07:31:36.592Z,3.65
2023-01-19T07:36:38.230Z,3.32
2023-01-19T07:41:39.876Z,3.52
2023-01-19T07:46:41.816Z,3.59
2023-01-19T07:51:43.266Z,3.48
2023-01-19T07:56:44.768Z,3.30
2023-01-19T08:01:46.594Z,3.41
2023-01-19T08:06:48.142Z,3.23
2023-01-19T08:11:49.726Z,3.41
2023-01-19T08:16:51.441Z,3.23
2023-01-19T08:21:53.206Z,3.27
2023-01-19T08:26:59.750Z,3.30
2023-01-19T08:32:01.546Z,3.34
2023-01-19T08:37:03.202Z,3.54
2023-01-19T08:42:04.730Z,3.65
2023-01-19T08:47:06.332Z,3.76
2023-01-19T08:52:07.935Z,3.94
2023-01-19T08:57:09.478Z,3.67
2023-01-19T09:02:11.084Z,4.04
2023-01-19T09:07:12.705Z,4.15
2023-01-19T09:12:14.196Z,4.18
2023-01-19T09:17:15.632Z,4.28
2023-01-19T09:22:17.187Z,4.46
2023-01-19T09:27:18.654Z,4.51
2023-01-19T09:32:21.636Z,4.80
2023-01-19T09:37:23.122Z,4.92
2023-01-19T09:42:40.093Z,5.04
2023-01-19T09:47:42.373Z,5.06
2023-01-19T09:52:50.695Z,5.11
2023-01-19T09:57:53.200Z,5.13
2023-01-19T10:03:10.715Z,5.54
2023-01-19T10:08:46.174Z,5.57
2023-01-19T10:13:50.666Z,5.91
2023-01-19T10:18:56.517Z,6.08
2023-01-19T10:24:19.341Z,6.27
2023-01-19T10:29:35.575Z,6.49
2023-01-19T10:34:37.159Z,6.59
2023-01-19T10:39:40.715Z,7.24
2023-01-19T10:44:43.966Z,7.74
2023-01-19T10:49:46.899Z,8.27
2023-01-19T10:54:48.501Z,9.14
2023-01-19T10:59:50.606Z,9.97
2023-01-19T11:04:54.935Z,10.33
2023-01-19T11:10:13.719Z,9.99
2023-01-19T11:15:20.878Z,9.46
2023-01-19T11:20:26.000Z,9.12
2023-01-19T11:25:31.453Z,8.88
2023-01-19T11:30:35.305Z,8.52
2023-01-19T11:35:39.584Z,8.27
2023-01-19T11:40:46.906Z,8.37
2023-01-19T11:45:48.524Z,8.57
2023-01-19T11:50:53.373Z,8.65
2023-01-19T11:56:01.018Z,9.11
2023-01-19T12:01:30.050Z,9.40
2023-01-19T12:06:38.321Z,9.94
2023-01-19T12:11:48.807Z,10.12
2023-01-19T12:16:53.152Z,9.84
2023-01-19T12:21:55.717Z,9.86
2023-01-19T12:27:11.032Z,9.74
2023-01-19T12:32:15.546Z,9.44
2023-01-19T12:37:39.637Z,9.84
2023-01-19T12:42:46.890Z,10.26
2023-01-19T12:47:56.218Z,9.75
2023-01-19T12:53:01.562Z,9.91
2023-01-19T12:58:24.389Z,10.42
2023-01-19T13:03:25.771Z,10.38
2023-01-19T13:08:48.230Z,10.31
2023-01-19T13:13:49.632Z,10.08
2023-01-19T13:19:06.373Z,10.08
2023-01-19T13:24:20.014Z,10.80
2023-01-19T13:29:34.975Z,10.78
2023-01-19T13:34:43.663Z,10.89
2023-01-19T13:39:47.963Z,10.67
2023-01-19T13:44:53.394Z,10.42
2023-01-19T13:49:58.758Z,10.26
2023-01-19T13:55:03.808Z,10.16
2023-01-19T14:00:11.832Z,10.06
2023-01-19T14:05:15.021Z,10.03
2023-01-19T14:10:16.816Z,10.03
2023-01-19T14:15:18.401Z,10.25
2023-01-19T14:20:30.326Z,10.12
2023-01-19T14:25:36.549Z,10.06
2023-01-19T14:30:38.084Z,9.75
2023-01-19T14:35:39.545Z,9.46
2023-01-19T14:40:41.162Z,9.25
2023-01-19T14:45:47.432Z,8.83
2023-01-19T14:51:02.308Z,8.72
2023-01-19T14:56:05.958Z,8.57
2023-01-19T15:01:07.575Z,8.28
2023-01-19T15:06:22.684Z,8.15
2023-01-19T15:11:29.748Z,7.97
2023-01-19T15:16:33.863Z,7.78
2023-01-19T15:21:35.445Z,7.62
2023-01-19T15:26:41.854Z,7.61
2023-01-19T15:31:43.469Z,7.64
2023-01-19T15:36:45.146Z,7.50
2023-01-19T15:41:46.686Z,7.28
2023-01-19T15:46:48.184Z,7.24
2023-01-19T15:51:49.756Z,6.73
2023-01-19T15:56:51.279Z,6.35
2023-01-19T16:01:52.976Z,6.23
2023-01-19T16:06:54.651Z,6.55
2023-01-19T16:11:56.229Z,6.08
2023-01-19T16:16:57.673Z,6.28
2023-01-19T16:22:06.679Z,6.09
2023-01-19T16:27:08.224Z,5.79
2023-01-19T16:32:09.717Z,5.81
2023-01-19T16:37:11.784Z,5.56
2023-01-19T16:42:13.235Z,5.58
2023-01-19T16:47:14.842Z,5.03
2023-01-19T16:52:16.330Z,5.36
2023-01-19T16:57:17.779Z,5.31
2023-01-19T17:02:19.370Z,5.37
2023-01-19T17:07:20.889Z,5.47
2023-01-19T17:12:22.462Z,5.44
2023-01-19T17:17:24.021Z,5.34
2023-01-19T17:22:25.564Z,5.49
2023-01-19T17:27:27.025Z,5.56
2023-01-19T17:32:29.729Z,5.39
2023-01-19T17:37:31.322Z,5.49
2023-01-19T17:42:32.757Z,5.64
2023-01-19T17:47:34.279Z,5.40
2023-01-19T17:52:35.847Z,5.29
2023-01-19T17:57:37.374Z,5.40
2023-01-19T18:02:39.032Z,5.25
2023-01-19T18:07:40.528Z,5.22
2023-01-19T18:12:42.130Z,5.05
2023-01-19T18:17:43.771Z,4.87
2023-01-19T18:22:45.274Z,4.70
2023-01-19T18:27:46.716Z,4.72
2023-01-19T18:32:48.347Z,4.80
2023-01-19T18:37:49.793Z,4.31
2023-01-19T18:42:51.224Z,4.24
2023-01-19T18:47:52.705Z,4.73
2023-01-19T18:52:54.491Z,4.77
2023-01-19T18:57:55.994Z,4.71
2023-01-19T19:02:57.990Z,4.46
2023-01-19T19:07:59.496Z,4.47
2023-01-19T19:13:01.150Z,4.48
2023-01-19T19:18:02.657Z,4.46
2023-01-19T19:23:04.218Z,4.33
2023-01-19T19:28:05.698Z,4.06
2023-01-19T19:33:07.151Z,3.87
2023-01-19T19:38:08.577Z,3.82
2023-01-19T19:43:10.024Z,3.87
2023-01-19T19:48:11.530Z,3.79
2023-01-19T19:53:13.032Z,3.76
2023-01-19T19:58:14.539Z,3.63
2023-01-19T20:03:15.994Z,3.55
2023-01-19T20:08:17.431Z,3.27
2023-01-19T20:13:18.924Z,2.92
2023-01-19T20:18:20.432Z,2.62
2023-01-19T20:23:21.889Z,2.54
2023-01-19T20:28:23.410Z,2.61
2023-01-19T20:33:24.941Z,2.33
2023-01-19T20:38:26.387Z,2.27
2023-01-19T20:43:28.987Z,2.25
2023-01-19T20:48:30.924Z,2.27
2023-01-19T20:53:33.313Z,2.17
2023-01-19T20:58:34.845Z,2.18
2023-01-19T21:03:36.388Z,2.28
2023-01-19T21:08:37.992Z,1.99
2023-01-19T21:13:39.630Z,2.00
2023-01-19T21:18:41.270Z,1.94
2023-01-19T21:23:42.839Z,1.94
2023-01-19T21:28:44.297Z,1.77
2023-01-19T21:33:45.808Z,1.79
2023-01-19T21:38:47.345Z,2.11
2023-01-19T21:43:48.860Z,2.08
2023-01-19T21:48:50.348Z,1.98
2023-01-19T21:53:51.887Z,1.98
2023-01-19T21:58:54.448Z,1.77
2023-01-19T22:03:57.449Z,1.99
2023-01-19T22:08:59.013Z,1.86
2023-01-19T22:14:00.587Z,2.03
2023-01-19T22:19:02.132Z,2.24
2023-01-19T22:24:05.429Z,2.19
2023-01-19T22:29:07.285Z,2.42
2023-01-19T22:34:09.171Z,2.54
2023-01-19T22:39:11.992Z,2.40
2023-01-19T22:44:15.772Z,2.39
2023-01-19T22:49:18.196Z,1.79
2023-01-19T22:54:19.787Z,2.04
2023-01-19T22:59:21.333Z,1.51
2023-01-19T23:04:22.786Z,1.64
2023-01-19T23:09:24.307Z,1.57
2023-01-19T23:14:26.283Z,1.57
2023-01-19T23:19:27.745Z,1.42
2023-01-19T23:24:29.214Z,1.01
2023-01-19T23:29:30.665Z,1.41
2023-01-19T23:34:32.110Z,1.30
2023-01-19T23:39:33.663Z,1.54
2023-01-19T23:44:35.114Z,1.62
2023-01-19T23:49:36.612Z,1.73
2023-01-19T23:54:38.060Z,1.63
2023-01-19T23:59:39.556Z,1.09
